createdAt,value
2017-04-22T00:00:33.187Z,4.75
2017-04-22T00:01:33.248Z,4.17
2017-04-22T00:02:33.257Z,5.43
2017-04-22T00:03:34.269Z,4.95
2017-04-22T00:04:34.648Z,4.45
2017-04-22T00:05:34.725Z,4.92
2017-04-22T00:06:35.385Z,5.05
2017-04-22T00:07:35.363Z,5.77
2017-04-22T00:08:35.342Z,5.12
2017-04-22T00:09:35.685Z,4.60
2017-04-22T00:10:35.641Z,5.05
2017-04-22T00:11:35.671Z,4.88
2017-04-22T00:12:35.620Z,4.45
2017-04-22T00:13:35.617Z,4.65
2017-04-22T00:14:36.293Z,6.10
2017-04-22T00:15:36.286Z,5.20
2017-04-22T00:16:36.257Z,5.10
2017-04-22T00:17:36.304Z,5.10
2017-04-22T00:18:36.268Z,5.55
2017-04-22T00:19:36.624Z,4.90
2017-04-22T00:20:36.635Z,4.75
2017-04-22T00:21:36.616Z,5.47
2017-04-22T00:22:36.608Z,5.18
2017-04-22T00:23:36.571Z,5.32
2017-04-22T00:24:37.691Z,4.87
2017-04-22T00:25:37.704Z,5.10
2017-04-22T00:26:38.459Z,5.35
2017-04-22T00:27:38.378Z,4.67
2017-04-22T00:28:38.356Z,5.12
2017-04-22T00:29:38.727Z,4.48
2017-04-22T00:30:38.674Z,4.63
2017-04-22T00:31:38.689Z,4.75
2017-04-22T00:32:38.771Z,4.80
2017-04-22T00:33:39.500Z,5.13
2017-04-22T00:34:40.232Z,4.72
2017-04-22T00:35:40.244Z,5.43
2017-04-22T00:36:40.302Z,5.42
2017-04-22T00:37:40.335Z,4.85
2017-04-22T00:38:40.514Z,4.75
2017-04-22T00:39:40.934Z,4.95
2017-04-22T00:40:40.892Z,5.13
2017-04-22T00:41:40.945Z,4.17
2017-04-22T00:42:40.926Z,5.27
2017-04-22T00:43:40.897Z,5.07
2017-04-22T00:44:41.152Z,4.68
2017-04-22T00:45:41.143Z,4.37
2017-04-22T00:46:41.154Z,5.03
2017-04-22T00:47:41.075Z,5.25
2017-04-22T00:48:41.063Z,5.07
2017-04-22T00:49:41.398Z,5.02
2017-04-22T00:50:41.365Z,5.13
2017-04-22T00:51:41.410Z,4.68
2017-04-22T00:52:41.379Z,4.78
2017-04-22T00:53:41.413Z,4.80
2017-04-22T00:54:41.759Z,4.13
2017-04-22T00:55:41.687Z,4.58
2017-04-22T00:56:42.381Z,4.73
2017-04-22T00:57:42.360Z,4.87
2017-04-22T00:58:42.275Z,5.35
2017-04-22T00:59:42.429Z,3.78
2017-04-22T01:00:42.435Z,5.03
2017-04-22T01:01:43.190Z,4.47
2017-04-22T01:02:43.243Z,4.70
2017-04-22T01:03:43.237Z,4.45
2017-04-22T01:04:43.539Z,4.73
2017-04-22T01:05:43.638Z,4.63
2017-04-22T01:06:43.619Z,3.87
2017-04-22T01:07:43.619Z,4.13
2017-04-22T01:08:43.534Z,4.38
2017-04-22T01:09:43.864Z,4.88
2017-04-22T01:10:43.829Z,4.77
2017-04-22T01:11:43.837Z,5.33
2017-04-22T01:12:44.469Z,4.73
2017-04-22T01:13:44.409Z,4.70
2017-04-22T01:14:44.674Z,5.88
2017-04-22T01:15:45.424Z,4.92
2017-04-22T01:16:45.367Z,4.75
2017-04-22T01:17:45.408Z,4.78
2017-04-22T01:18:45.410Z,4.25
2017-04-22T01:19:46.500Z,4.93
2017-04-22T01:20:46.581Z,4.48
2017-04-22T01:21:46.595Z,4.90
2017-04-22T01:22:47.345Z,4.43
2017-04-22T01:23:47.258Z,5.22
2017-04-22T01:24:47.662Z,4.97
2017-04-22T01:25:47.649Z,5.08
2017-04-22T01:26:47.631Z,4.65
2017-04-22T01:27:47.592Z,5.27
2017-04-22T01:28:48.334Z,4.88
2017-04-22T01:29:49.409Z,5.30
2017-04-22T01:30:49.425Z,5.10
2017-04-22T01:31:49.429Z,5.25
2017-04-22T01:32:49.432Z,5.25
2017-04-22T01:33:49.394Z,4.98
2017-04-22T01:34:50.441Z,4.73
2017-04-22T01:35:54.243Z,4.57
2017-04-22T01:36:54.192Z,4.43
2017-04-22T01:37:54.407Z,4.40
2017-04-22T01:38:54.424Z,5.20
2017-04-22T01:39:55.508Z,4.37
2017-04-22T01:40:55.569Z,4.78
2017-04-22T01:41:56.255Z,4.58
2017-04-22T01:42:56.197Z,4.20
2017-04-22T01:43:56.874Z,4.80
2017-04-22T01:44:57.202Z,4.05
2017-04-22T01:45:57.188Z,5.93
2017-04-22T01:46:57.161Z,4.33
2017-04-22T01:47:57.165Z,4.45
2017-04-22T01:48:57.106Z,4.50
2017-04-22T01:49:57.351Z,4.88
2017-04-22T01:50:57.316Z,4.83
2017-04-22T01:51:57.284Z,5.50
2017-04-22T01:52:57.323Z,4.87
2017-04-22T01:53:57.292Z,4.78
2017-04-22T01:54:58.367Z,4.70
2017-04-22T01:55:58.314Z,4.65
2017-04-22T01:56:58.336Z,5.08
2017-04-22T01:57:59.059Z,5.22
2017-04-22T01:58:59.794Z,4.88
2017-04-22T02:00:00.873Z,5.18
2017-04-22T02:01:00.846Z,4.97
2017-04-22T02:02:00.548Z,5.73
2017-04-22T02:03:00.606Z,4.85
2017-04-22T02:04:00.555Z,5.07
2017-04-22T02:05:00.921Z,5.38
2017-04-22T02:06:01.657Z,4.92
2017-04-22T02:07:02.359Z,5.38
2017-04-22T02:08:02.341Z,5.47
2017-04-22T02:09:02.299Z,4.62
2017-04-22T02:10:03.250Z,4.65
2017-04-22T02:11:03.242Z,4.65
2017-04-22T02:12:03.296Z,5.35
2017-04-22T02:13:03.317Z,4.28
2017-04-22T02:14:03.281Z,5.65
2017-04-22T02:15:03.601Z,4.78
2017-04-22T02:16:03.553Z,5.15
2017-04-22T02:17:04.321Z,5.92
2017-04-22T02:18:04.408Z,4.98
2017-04-22T02:19:04.333Z,5.28
2017-04-22T02:20:04.349Z,4.75
2017-04-22T02:21:04.348Z,5.23
2017-04-22T02:22:04.341Z,6.00
2017-04-22T02:23:04.403Z,6.02
2017-04-22T02:24:04.445Z,5.02
2017-04-22T02:25:04.823Z,5.58
2017-04-22T02:26:04.909Z,5.13
2017-04-22T02:27:04.923Z,5.10
2017-04-22T02:28:04.910Z,4.72
2017-04-22T02:29:04.985Z,5.02
2017-04-22T02:30:06.120Z,5.70
2017-04-22T02:31:06.064Z,5.37
2017-04-22T02:32:06.063Z,4.68
2017-04-22T02:33:06.037Z,4.90
2017-04-22T02:34:06.042Z,4.77
2017-04-22T02:35:06.352Z,5.47
2017-04-22T02:36:07.027Z,5.45
2017-04-22T02:37:07.027Z,4.87
2017-04-22T02:38:06.821Z,5.20
2017-04-22T02:39:06.835Z,5.47
2017-04-22T02:40:07.168Z,5.73
2017-04-22T02:41:07.109Z,5.62
2017-04-22T02:42:07.046Z,5.75
2017-04-22T02:43:07.050Z,5.28
2017-04-22T02:44:07.133Z,6.48
2017-04-22T02:45:07.505Z,5.37
2017-04-22T02:46:07.541Z,6.03
2017-04-22T02:47:08.248Z,5.15
2017-04-22T02:48:08.178Z,6.10
2017-04-22T02:49:08.174Z,5.30
2017-04-22T02:50:09.175Z,6.15
2017-04-22T02:51:09.333Z,5.87
2017-04-22T02:52:09.329Z,5.95
2017-04-22T02:53:09.320Z,5.45
2017-04-22T02:54:09.306Z,6.00
2017-04-22T02:55:09.625Z,5.45
2017-04-22T02:56:09.615Z,5.72
2017-04-22T02:57:09.542Z,6.23
2017-04-22T02:58:09.632Z,5.60
2017-04-22T02:59:09.638Z,6.32
2017-04-22T03:00:09.938Z,6.78
2017-04-22T03:01:09.879Z,5.72
2017-04-22T03:02:10.568Z,5.92
2017-04-22T03:03:10.551Z,5.18
2017-04-22T03:04:10.478Z,5.43
2017-04-22T03:05:10.774Z,5.70
2017-04-22T03:06:10.744Z,6.45
2017-04-22T03:07:11.421Z,5.30
2017-04-22T03:08:11.376Z,6.18
2017-04-22T03:09:11.340Z,5.73
2017-04-22T03:10:11.654Z,6.00
2017-04-22T03:11:11.601Z,5.62
2017-04-22T03:12:11.528Z,5.78
2017-04-22T03:13:11.453Z,6.52
2017-04-22T03:14:11.691Z,5.42
2017-04-22T03:15:12.005Z,6.32
2017-04-22T03:16:13.765Z,6.13
2017-04-22T03:17:13.778Z,6.10
2017-04-22T03:18:14.545Z,6.25
2017-04-22T03:19:14.501Z,6.18
2017-04-22T03:20:15.494Z,6.25
2017-04-22T03:21:15.478Z,6.03
2017-04-22T03:22:15.499Z,5.75
2017-04-22T03:23:24.109Z,5.92
2017-04-22T03:24:24.088Z,6.57
2017-04-22T03:25:24.343Z,6.40
2017-04-22T03:26:24.332Z,5.63
2017-04-22T03:27:24.270Z,5.42
2017-04-22T03:28:24.188Z,5.93
2017-04-22T03:29:24.167Z,6.28
2017-04-22T03:30:24.568Z,5.98
2017-04-22T03:31:25.289Z,5.72
2017-04-22T03:32:25.220Z,6.93
2017-04-22T03:33:25.240Z,6.63
2017-04-22T03:34:25.249Z,6.55
2017-04-22T03:35:25.468Z,5.65
2017-04-22T03:36:25.400Z,7.22
2017-04-22T03:37:25.346Z,6.55
2017-04-22T03:38:26.008Z,6.23
2017-04-22T03:39:25.950Z,6.80
2017-04-22T03:40:26.370Z,5.85
2017-04-22T03:41:26.486Z,6.73
2017-04-22T03:42:26.673Z,6.40
2017-04-22T03:43:26.701Z,6.18
2017-04-22T03:44:26.687Z,5.47
2017-04-22T03:45:27.012Z,7.53
2017-04-22T03:46:27.003Z,6.63
2017-04-22T03:47:26.946Z,5.95
2017-04-22T03:48:27.773Z,6.05
2017-04-22T03:49:27.964Z,7.05
2017-04-22T03:50:28.282Z,5.63
2017-04-22T03:51:28.254Z,5.42
2017-04-22T03:52:28.197Z,5.85
2017-04-22T03:53:28.958Z,6.65
2017-04-22T03:54:29.020Z,6.52
2017-04-22T03:55:29.337Z,6.18
2017-04-22T03:56:29.266Z,6.38
2017-04-22T03:57:29.276Z,8.12
2017-04-22T03:58:29.206Z,6.58
2017-04-22T03:59:29.292Z,7.30
2017-04-22T04:00:29.518Z,6.45
2017-04-22T04:01:29.534Z,6.08
2017-04-22T04:02:29.481Z,7.02
2017-04-22T04:03:29.461Z,6.35
2017-04-22T04:04:29.416Z,6.23
2017-04-22T04:05:29.734Z,7.67
2017-04-22T04:06:30.416Z,6.75
2017-04-22T04:07:30.509Z,7.00
2017-04-22T04:08:30.450Z,7.52
2017-04-22T04:09:31.189Z,7.02
2017-04-22T04:10:31.560Z,6.32
2017-04-22T04:11:31.578Z,6.70
2017-04-22T04:12:31.543Z,6.97
2017-04-22T04:13:31.565Z,7.40
2017-04-22T04:14:31.631Z,7.45
2017-04-22T04:15:32.631Z,6.57
2017-04-22T04:16:32.575Z,6.87
2017-04-22T04:17:32.565Z,6.47
2017-04-22T04:18:33.286Z,6.45
2017-04-22T04:19:33.281Z,7.73
2017-04-22T04:20:33.676Z,6.92
2017-04-22T04:21:33.630Z,7.02
2017-04-22T04:22:33.618Z,7.23
2017-04-22T04:23:34.382Z,6.42
2017-04-22T04:24:34.364Z,6.40
2017-04-22T04:25:34.567Z,6.98
2017-04-22T04:26:34.572Z,6.83
2017-04-22T04:27:34.509Z,6.67
2017-04-22T04:28:34.522Z,7.28
2017-04-22T04:29:34.546Z,7.15
2017-04-22T04:30:34.970Z,6.88
2017-04-22T04:31:34.938Z,6.55
2017-04-22T04:32:34.889Z,6.42
2017-04-22T04:33:34.844Z,6.63
2017-04-22T04:34:34.826Z,7.53
2017-04-22T04:35:35.310Z,6.97
2017-04-22T04:36:35.252Z,6.65
2017-04-22T04:37:35.197Z,6.92
2017-04-22T04:38:35.965Z,7.20
2017-04-22T04:39:35.663Z,6.28
2017-04-22T04:40:36.164Z,7.52
2017-04-22T04:41:36.225Z,6.73
2017-04-22T04:42:36.347Z,6.60
2017-04-22T04:43:36.310Z,7.55
2017-04-22T04:44:37.021Z,6.07
2017-04-22T04:45:38.127Z,6.28
2017-04-22T04:46:38.126Z,7.43
2017-04-22T04:47:38.123Z,6.92
2017-04-22T04:48:38.042Z,6.43
2017-04-22T04:49:38.055Z,6.80
2017-04-22T04:50:38.199Z,5.70
2017-04-22T04:51:39.077Z,5.87
2017-04-22T04:52:39.025Z,6.62
2017-04-22T04:53:39.029Z,6.37
2017-04-22T04:54:39.697Z,5.68
2017-04-22T04:55:40.754Z,5.60
2017-04-22T04:56:40.466Z,6.55
2017-04-22T04:57:40.602Z,5.33
2017-04-22T04:58:41.325Z,6.67
2017-04-22T04:59:41.331Z,5.42
2017-04-22T05:00:41.701Z,6.77
2017-04-22T05:01:41.768Z,6.60
2017-04-22T05:02:41.742Z,7.45
2017-04-22T05:03:41.697Z,6.25
2017-04-22T05:04:41.635Z,6.23
2017-04-22T05:05:41.962Z,6.98
2017-04-22T05:06:41.943Z,7.20
2017-04-22T05:07:41.885Z,8.35
2017-04-22T05:08:41.783Z,8.13
2017-04-22T05:09:42.263Z,9.90
2017-04-22T05:10:42.317Z,8.67
2017-04-22T05:11:42.248Z,8.88
2017-04-22T05:12:42.270Z,12.83
2017-04-22T05:13:42.225Z,10.48
2017-04-22T05:14:42.231Z,9.95
2017-04-22T05:15:43.260Z,9.15
2017-04-22T05:16:43.949Z,9.22
2017-04-22T05:17:43.977Z,7.48
2017-04-22T05:18:44.690Z,7.80
2017-04-22T05:19:44.593Z,7.65
2017-04-22T05:20:44.994Z,7.78
2017-04-22T05:21:44.945Z,7.78
2017-04-22T05:22:44.887Z,7.22
2017-04-22T05:23:44.793Z,6.50
2017-04-22T05:24:44.721Z,6.78
2017-04-22T05:25:45.037Z,6.48
2017-04-22T05:26:45.033Z,6.07
2017-04-22T05:27:44.953Z,6.93
2017-04-22T05:28:45.494Z,6.83
2017-04-22T05:29:46.256Z,6.92
2017-04-22T05:30:47.305Z,6.98
2017-04-22T05:31:47.330Z,6.50
2017-04-22T05:32:47.265Z,6.73
2017-04-22T05:33:47.309Z,7.45
2017-04-22T05:34:47.320Z,7.12
2017-04-22T05:35:47.659Z,6.87
2017-04-22T05:36:47.593Z,6.62
2017-04-22T05:37:47.594Z,6.88
2017-04-22T05:38:48.712Z,7.12
2017-04-22T05:39:49.458Z,6.97
2017-04-22T05:40:49.835Z,6.55
2017-04-22T05:41:49.862Z,6.45
2017-04-22T05:42:49.844Z,6.85
2017-04-22T05:43:49.841Z,7.03
2017-04-22T05:44:49.793Z,6.97
2017-04-22T05:45:50.180Z,6.68
2017-04-22T05:46:50.175Z,7.05
2017-04-22T05:47:50.202Z,7.65
2017-04-22T05:48:50.922Z,7.20
2017-04-22T05:49:51.627Z,6.78
2017-04-22T05:50:51.879Z,6.55
2017-04-22T05:51:51.847Z,7.15
2017-04-22T05:52:51.835Z,7.02
2017-04-22T05:53:51.753Z,6.33
2017-04-22T05:54:51.701Z,6.80
2017-04-22T05:55:51.973Z,7.42
2017-04-22T05:56:52.102Z,7.05
2017-04-22T05:57:52.817Z,6.38
2017-04-22T05:58:52.774Z,6.27
2017-04-22T05:59:52.768Z,6.95
2017-04-22T06:00:53.128Z,6.65
2017-04-22T06:01:53.105Z,7.43
2017-04-22T06:02:53.078Z,8.15
2017-04-22T06:03:53.036Z,8.27
2017-04-22T06:04:53.092Z,8.60
2017-04-22T06:05:53.443Z,6.58
2017-04-22T06:06:53.365Z,7.28
2017-04-22T06:07:56.345Z,7.73
2017-04-22T06:08:56.395Z,6.73
2017-04-22T06:09:56.389Z,6.02
2017-04-22T06:10:57.488Z,6.52
2017-04-22T06:11:57.220Z,6.77
2017-04-22T06:12:57.201Z,6.88
2017-04-22T06:13:57.162Z,6.78
2017-04-22T06:14:57.117Z,7.08
2017-04-22T06:15:57.170Z,6.80
2017-04-22T06:16:57.530Z,7.12
2017-04-22T06:17:57.359Z,6.03
2017-04-22T06:18:58.049Z,6.47
2017-04-22T06:19:57.999Z,7.33
2017-04-22T06:20:58.089Z,8.18
2017-04-22T06:21:58.409Z,7.28
2017-04-22T06:22:59.178Z,7.00
2017-04-22T06:23:59.162Z,6.52
2017-04-22T06:24:59.186Z,7.05
2017-04-22T06:25:59.192Z,6.00
2017-04-22T06:26:59.460Z,5.82
2017-04-22T06:28:00.120Z,7.00
2017-04-22T06:29:00.149Z,5.87
2017-04-22T06:30:00.113Z,6.30
2017-04-22T06:31:00.050Z,6.78
2017-04-22T06:32:00.357Z,5.62
2017-04-22T06:33:00.397Z,5.68
2017-04-22T06:34:00.338Z,6.83
2017-04-22T06:35:00.281Z,6.53
2017-04-22T06:36:00.205Z,7.37
2017-04-22T06:37:00.197Z,4.83
2017-04-22T06:38:00.506Z,7.15
2017-04-22T06:39:00.518Z,7.63
2017-04-22T06:40:00.550Z,8.17
2017-04-22T06:41:01.257Z,8.73
2017-04-22T06:42:01.176Z,6.43
2017-04-22T06:43:02.231Z,6.83
2017-04-22T06:44:02.206Z,6.70
2017-04-22T06:45:02.933Z,6.50
2017-04-22T06:46:02.858Z,6.40
2017-04-22T06:47:02.797Z,6.03
2017-04-22T06:48:03.136Z,6.63
2017-04-22T06:49:03.080Z,6.07
2017-04-22T06:50:03.059Z,7.58
2017-04-22T06:51:03.033Z,6.50
2017-04-22T06:52:03.151Z,5.92
2017-04-22T06:53:03.518Z,6.15
2017-04-22T06:54:03.543Z,5.40
2017-04-22T06:55:03.506Z,5.60
2017-04-22T06:56:04.242Z,6.43
2017-04-22T06:57:04.959Z,6.68
2017-04-22T06:58:06.057Z,5.75
2017-04-22T06:59:06.082Z,6.90
2017-04-22T07:00:06.796Z,6.42
2017-04-22T07:01:06.827Z,7.23
2017-04-22T07:02:07.514Z,6.03
2017-04-22T07:03:07.973Z,6.52
2017-04-22T07:04:07.967Z,6.80
2017-04-22T07:05:08.724Z,6.93
2017-04-22T07:06:08.706Z,6.57
2017-04-22T07:07:08.684Z,6.48
2017-04-22T07:08:09.007Z,6.65
2017-04-22T07:09:08.996Z,7.05
2017-04-22T07:10:09.044Z,6.23
2017-04-22T07:11:09.005Z,6.48
2017-04-22T07:12:08.982Z,6.48
2017-04-22T07:13:09.468Z,5.73
2017-04-22T07:14:09.528Z,6.50
2017-04-22T07:15:09.538Z,6.27
2017-04-22T07:16:09.537Z,5.95
2017-04-22T07:17:10.211Z,6.03
2017-04-22T07:18:10.623Z,7.02
2017-04-22T07:19:10.629Z,5.73
2017-04-22T07:20:11.616Z,6.62
2017-04-22T07:21:11.681Z,7.40
2017-04-22T07:22:11.643Z,6.52
2017-04-22T07:23:12.060Z,6.55
2017-04-22T07:24:12.757Z,6.87
2017-04-22T07:25:12.748Z,6.87
2017-04-22T07:26:12.715Z,7.10
2017-04-22T07:27:13.478Z,6.87
2017-04-22T07:28:13.729Z,5.95
2017-04-22T07:29:13.711Z,6.78
2017-04-22T07:30:13.635Z,7.10
2017-04-22T07:31:13.596Z,7.78
2017-04-22T07:32:13.603Z,6.57
2017-04-22T07:33:13.933Z,6.82
2017-04-22T07:34:13.901Z,7.07
2017-04-22T07:35:13.834Z,7.40
2017-04-22T07:36:13.880Z,7.07
2017-04-22T07:37:13.880Z,6.72
2017-04-22T07:38:14.209Z,6.23
2017-04-22T07:39:14.758Z,7.15
2017-04-22T07:40:14.725Z,7.08
2017-04-22T07:41:14.682Z,7.03
2017-04-22T07:42:14.728Z,7.55
2017-04-22T07:43:15.073Z,7.42
2017-04-22T07:44:15.042Z,8.08
2017-04-22T07:45:14.987Z,7.20
2017-04-22T07:46:14.995Z,7.35
2017-04-22T07:47:14.971Z,7.52
2017-04-22T07:48:15.282Z,8.28
2017-04-22T07:49:15.294Z,7.12
2017-04-22T07:50:15.228Z,7.37
2017-04-22T07:51:15.669Z,7.02
2017-04-22T07:52:15.640Z,7.55
2017-04-22T07:53:16.733Z,7.50
2017-04-22T07:54:16.775Z,7.57
2017-04-22T07:55:17.470Z,7.03
2017-04-22T07:56:17.407Z,7.02
2017-04-22T07:57:18.366Z,6.22
2017-04-22T07:58:18.870Z,7.27
2017-04-22T07:59:18.906Z,6.97
2017-04-22T08:00:19.105Z,9.67
2017-04-22T08:01:19.113Z,8.52
2017-04-22T08:02:19.230Z,8.10
2017-04-22T08:03:20.336Z,7.40
2017-04-22T08:04:20.270Z,7.43
2017-04-22T08:05:20.186Z,7.35
2017-04-22T08:06:19.964Z,8.25
2017-04-22T08:07:19.981Z,7.80
2017-04-22T08:08:21.037Z,7.20
2017-04-22T08:09:21.051Z,7.60
2017-04-22T08:10:21.779Z,7.12
2017-04-22T08:11:22.474Z,7.08
2017-04-22T08:12:22.447Z,7.37
2017-04-22T08:13:22.730Z,8.78
2017-04-22T08:14:23.501Z,6.82
2017-04-22T08:15:23.441Z,8.28
2017-04-22T08:16:23.427Z,7.63
2017-04-22T08:17:23.414Z,8.17
2017-04-22T08:18:23.728Z,8.33
2017-04-22T08:19:23.698Z,8.07
2017-04-22T08:20:23.662Z,7.35
2017-04-22T08:21:23.655Z,8.02
2017-04-22T08:22:23.629Z,8.83
2017-04-22T08:23:23.916Z,8.08
2017-04-22T08:24:23.935Z,8.53
2017-04-22T08:25:23.912Z,7.92
2017-04-22T08:26:24.657Z,8.12
2017-04-22T08:27:25.153Z,7.93
2017-04-22T08:28:25.560Z,8.85
2017-04-22T08:29:25.577Z,8.12
2017-04-22T08:30:26.268Z,7.85
2017-04-22T08:31:26.238Z,8.15
2017-04-22T08:32:26.221Z,7.98
2017-04-22T08:33:27.227Z,7.15
2017-04-22T08:34:27.251Z,8.87
2017-04-22T08:35:27.966Z,8.12
2017-04-22T08:36:27.949Z,8.17
2017-04-22T08:37:27.946Z,7.48
2017-04-22T08:38:28.310Z,7.23
2017-04-22T08:39:28.324Z,7.47
2017-04-22T08:40:28.270Z,8.62
2017-04-22T08:41:28.206Z,7.47
2017-04-22T08:42:28.230Z,8.85
2017-04-22T08:43:29.322Z,8.50
2017-04-22T08:44:29.068Z,8.67
2017-04-22T08:45:29.007Z,8.95
2017-04-22T08:46:29.016Z,8.80
2017-04-22T08:47:29.937Z,8.35
2017-04-22T08:48:30.280Z,8.32
2017-04-22T08:49:30.222Z,7.72
2017-04-22T08:50:30.967Z,8.98
2017-04-22T08:51:30.667Z,8.08
2017-04-22T08:52:30.473Z,10.12
2017-04-22T08:53:30.839Z,10.15
2017-04-22T08:54:30.835Z,10.17
2017-04-22T08:55:30.807Z,8.93
2017-04-22T08:56:30.798Z,9.17
2017-04-22T08:57:30.746Z,9.70
2017-04-22T08:58:31.056Z,9.85
2017-04-22T08:59:31.097Z,9.83
2017-04-22T09:00:31.764Z,9.98
2017-04-22T09:01:31.765Z,9.35
2017-04-22T09:02:31.760Z,9.10
2017-04-22T09:03:32.124Z,10.08
2017-04-22T09:04:32.108Z,9.73
2017-04-22T09:05:32.107Z,10.68
2017-04-22T09:06:32.125Z,11.05
2017-04-22T09:07:32.113Z,10.62
2017-04-22T09:08:32.406Z,10.23
2017-04-22T09:09:32.397Z,10.65
2017-04-22T09:10:32.427Z,9.77
2017-04-22T09:11:32.103Z,10.00
2017-04-22T09:12:32.086Z,10.73
2017-04-22T09:13:33.230Z,11.38
2017-04-22T09:14:33.200Z,10.53
2017-04-22T09:15:33.192Z,10.95
2017-04-22T09:16:33.301Z,11.30
2017-04-22T09:17:33.246Z,10.98
2017-04-22T09:18:34.312Z,10.75
2017-04-22T09:19:34.311Z,12.65
2017-04-22T09:20:34.298Z,13.08
2017-04-22T09:21:34.306Z,11.73
2017-04-22T09:22:35.110Z,11.70
2017-04-22T09:23:35.405Z,12.72
2017-04-22T09:24:35.383Z,12.68
2017-04-22T09:25:47.774Z,13.12
2017-04-22T09:26:47.760Z,12.63
2017-04-22T09:27:47.796Z,13.18
2017-04-22T09:28:48.113Z,13.58
2017-04-22T09:29:48.127Z,12.22
2017-04-22T09:30:48.136Z,13.67
2017-04-22T09:31:48.099Z,13.82
2017-04-22T09:32:48.095Z,14.72
2017-04-22T09:33:48.447Z,13.92
2017-04-22T09:34:48.464Z,14.45
2017-04-22T09:35:48.532Z,14.70
2017-04-22T09:36:48.325Z,14.67
2017-04-22T09:37:48.324Z,15.25
2017-04-22T09:38:49.538Z,16.25
2017-04-22T09:39:49.365Z,15.45
2017-04-22T09:40:50.150Z,16.38
2017-04-22T09:41:49.992Z,14.65
2017-04-22T09:42:50.495Z,15.90
2017-04-22T09:43:52.433Z,14.72
2017-04-22T09:44:52.504Z,14.83
2017-04-22T09:45:52.525Z,15.42
2017-04-22T09:47:02.908Z,15.67
2017-04-22T09:48:03.638Z,16.23
2017-04-22T09:49:04.040Z,16.65
2017-04-22T09:50:04.156Z,17.02
2017-04-22T09:51:05.198Z,16.88
2017-04-22T09:52:05.938Z,18.48
2017-04-22T09:53:05.958Z,17.43
2017-04-22T09:54:06.414Z,17.50
2017-04-22T09:55:06.445Z,18.70
2017-04-22T09:56:07.143Z,18.50
2017-04-22T09:57:07.204Z,18.70
2017-04-22T09:58:07.343Z,20.85
2017-04-22T09:59:07.776Z,19.75
2017-04-22T10:00:10.379Z,21.52
2017-04-22T10:01:11.211Z,24.25
2017-04-22T10:02:11.178Z,20.07
2017-04-22T10:03:11.968Z,19.78
2017-04-22T10:04:12.226Z,22.55
2017-04-22T10:05:12.186Z,24.85
2017-04-22T10:06:12.197Z,22.48
2017-04-22T10:07:12.249Z,23.68
2017-04-22T10:08:12.987Z,23.77
2017-04-22T10:09:13.337Z,23.22
2017-04-22T10:10:13.339Z,22.82
2017-04-22T10:11:13.318Z,24.85
2017-04-22T10:12:13.372Z,24.32
2017-04-22T10:13:14.753Z,23.93
2017-04-22T10:14:16.178Z,24.48
2017-04-22T10:15:16.895Z,24.90
2017-04-22T10:16:17.624Z,25.98
2017-04-22T10:17:18.313Z,25.87
2017-04-22T10:18:18.331Z,25.42
2017-04-22T10:19:18.658Z,25.20
2017-04-22T10:20:18.673Z,24.32
2017-04-22T10:21:19.392Z,24.70
2017-04-22T10:22:19.370Z,23.08
2017-04-22T10:23:19.526Z,22.83
2017-04-22T10:24:19.943Z,25.12
2017-04-22T10:25:19.957Z,23.95
2017-04-22T10:26:19.728Z,24.22
2017-04-22T10:27:19.884Z,22.77
2017-04-22T10:28:19.907Z,26.22
2017-04-22T10:29:20.176Z,26.07
2017-04-22T10:30:20.625Z,27.35
2017-04-22T10:31:20.597Z,26.80
2017-04-22T10:32:20.531Z,26.92
2017-04-22T10:33:20.607Z,27.20
2017-04-22T10:34:21.623Z,26.10
2017-04-22T10:35:22.380Z,27.92
2017-04-22T10:36:22.310Z,30.22
2017-04-22T10:37:22.334Z,27.63
2017-04-22T10:38:22.431Z,28.93
2017-04-22T10:39:22.735Z,27.05
2017-04-22T10:40:22.765Z,28.72
2017-04-22T10:41:22.762Z,29.07
2017-04-22T10:42:22.730Z,30.13
2017-04-22T10:43:22.685Z,24.67
2017-04-22T10:44:23.015Z,28.65
2017-04-22T10:45:23.897Z,26.58
2017-04-22T10:46:23.865Z,27.77
2017-04-22T10:47:23.910Z,22.13
2017-04-22T10:48:23.651Z,26.00
2017-04-22T10:49:24.120Z,26.23
2017-04-22T10:50:24.134Z,26.10
2017-04-22T10:51:24.188Z,23.53
2017-04-22T10:52:24.892Z,24.55
2017-04-22T10:53:24.642Z,22.48
2017-04-22T10:54:25.131Z,23.63
2017-04-22T10:55:25.258Z,22.97
2017-04-22T10:56:25.751Z,23.20
2017-04-22T10:57:26.511Z,21.88
2017-04-22T10:58:26.477Z,22.02
2017-04-22T10:59:27.523Z,21.45
2017-04-22T11:00:28.276Z,21.62
2017-04-22T11:01:28.390Z,20.52
2017-04-22T11:02:28.349Z,20.97
2017-04-22T11:03:29.176Z,20.82
2017-04-22T11:04:29.499Z,15.93
2017-04-22T11:05:29.456Z,18.03
2017-04-22T11:06:29.512Z,16.30
2017-04-22T11:07:30.293Z,17.20
2017-04-22T11:08:30.231Z,18.00
2017-04-22T11:09:31.790Z,17.82
2017-04-22T11:10:31.802Z,18.00
2017-04-22T11:11:31.759Z,16.93
2017-04-22T11:12:32.661Z,17.83
2017-04-22T11:13:32.809Z,16.87
2017-04-22T11:14:33.088Z,17.55
2017-04-22T11:15:33.059Z,15.28
2017-04-22T11:16:33.097Z,15.27
2017-04-22T11:17:33.382Z,16.08
2017-04-22T11:18:33.462Z,14.67
2017-04-22T11:19:41.933Z,17.95
2017-04-22T11:20:42.201Z,15.20
2017-04-22T11:21:42.238Z,16.10
2017-04-22T11:22:42.288Z,15.78
2017-04-22T11:23:42.234Z,14.33
2017-04-22T11:24:42.625Z,18.23
2017-04-22T11:25:42.619Z,16.17
2017-04-22T11:26:43.411Z,15.82
2017-04-22T11:27:43.405Z,16.10
2017-04-22T11:28:43.412Z,16.70
2017-04-22T11:29:43.871Z,14.93
2017-04-22T11:30:43.936Z,16.37
2017-04-22T11:31:43.922Z,16.92
2017-04-22T11:32:43.916Z,17.52
2017-04-22T11:33:43.875Z,13.28
2017-04-22T11:34:44.168Z,16.83
2017-04-22T11:35:44.353Z,16.35
2017-04-22T11:36:45.509Z,16.35
2017-04-22T11:37:45.469Z,16.58
2017-04-22T11:38:46.219Z,16.67
2017-04-22T11:39:46.680Z,16.85
2017-04-22T11:40:46.690Z,16.73
2017-04-22T11:41:47.468Z,14.57
2017-04-22T11:42:47.485Z,15.03
2017-04-22T11:43:47.553Z,16.73
2017-04-22T11:44:47.652Z,16.23
2017-04-22T11:45:47.731Z,15.20
2017-04-22T11:46:47.774Z,15.22
2017-04-22T11:47:48.398Z,14.73
2017-04-22T11:48:49.179Z,14.87
2017-04-22T11:49:49.507Z,14.20
2017-04-22T11:50:49.504Z,16.27
2017-04-22T11:51:49.507Z,16.35
2017-04-22T11:52:49.554Z,14.93
2017-04-22T11:53:49.520Z,16.53
2017-04-22T11:54:49.669Z,16.30
2017-04-22T11:55:50.394Z,16.70
2017-04-22T11:56:50.369Z,16.73
2017-04-22T11:57:51.142Z,16.90
2017-04-22T11:58:50.929Z,16.15
2017-04-22T11:59:51.224Z,14.55
2017-04-22T12:00:51.976Z,14.42
2017-04-22T12:01:51.987Z,17.35
2017-04-22T12:02:51.995Z,15.20
2017-04-22T12:03:51.999Z,14.10
2017-04-22T12:04:52.187Z,17.27
2017-04-22T12:05:52.957Z,13.98
2017-04-22T12:06:52.991Z,14.43
2017-04-22T12:07:52.949Z,18.98
2017-04-22T12:08:52.994Z,16.40
2017-04-22T12:09:53.272Z,14.75
2017-04-22T12:10:53.274Z,14.43
2017-04-22T12:11:53.339Z,14.22
2017-04-22T12:12:53.789Z,15.20
2017-04-22T12:13:53.817Z,13.97
2017-04-22T12:14:54.810Z,15.28
2017-04-22T12:15:55.546Z,14.83
2017-04-22T12:16:55.519Z,13.22
2017-04-22T12:17:56.291Z,13.88
2017-04-22T12:18:56.305Z,14.13
2017-04-22T12:19:56.660Z,12.18
2017-04-22T12:20:56.645Z,14.62
2017-04-22T12:21:56.657Z,13.45
2017-04-22T12:22:56.685Z,13.90
2017-04-22T12:23:57.489Z,14.33
2017-04-22T12:24:57.831Z,12.93
2017-04-22T12:25:58.499Z,13.05
2017-04-22T12:26:58.504Z,11.87
2017-04-22T12:27:58.448Z,14.42
2017-04-22T12:28:58.438Z,14.23
2017-04-22T12:29:58.751Z,13.62
2017-04-22T12:30:58.728Z,13.95
2017-04-22T12:31:58.679Z,13.75
2017-04-22T12:32:58.626Z,14.23
2017-04-22T12:33:59.409Z,15.62
2017-04-22T12:35:00.552Z,14.95
2017-04-22T12:36:01.110Z,12.87
2017-04-22T12:37:01.104Z,12.75
2017-04-22T12:38:01.114Z,13.35
2017-04-22T12:39:01.137Z,13.80
2017-04-22T12:40:01.464Z,12.08
2017-04-22T12:41:01.413Z,14.12
2017-04-22T12:42:02.205Z,15.47
2017-04-22T12:43:02.157Z,15.20
2017-04-22T12:44:02.198Z,14.03
2017-04-22T12:45:02.538Z,14.08
2017-04-22T12:46:02.520Z,13.75
2017-04-22T12:47:02.521Z,14.48
2017-04-22T12:48:07.273Z,13.92
2017-04-22T12:49:07.277Z,13.40
2017-04-22T12:50:08.403Z,13.63
2017-04-22T12:51:08.354Z,13.68
2017-04-22T12:52:08.331Z,15.35
2017-04-22T12:53:09.111Z,15.72
2017-04-22T12:54:09.187Z,15.55
2017-04-22T12:55:09.549Z,13.32
2017-04-22T12:56:09.511Z,14.82
2017-04-22T12:57:09.459Z,14.37
2017-04-22T12:58:09.505Z,13.48
2017-04-22T12:59:09.643Z,15.23
2017-04-22T13:00:10.033Z,14.80
2017-04-22T13:01:10.778Z,13.45
2017-04-22T13:02:11.523Z,14.20
2017-04-22T13:03:11.546Z,15.50
2017-04-22T13:04:11.487Z,12.70
2017-04-22T13:05:12.598Z,14.75
2017-04-22T13:06:12.589Z,14.77
2017-04-22T13:07:12.615Z,13.40
2017-04-22T13:08:13.359Z,12.77
2017-04-22T13:09:13.357Z,13.55
2017-04-22T13:10:14.419Z,14.62
2017-04-22T13:11:18.087Z,12.85
2017-04-22T13:12:18.049Z,12.45
2017-04-22T13:13:18.082Z,13.65
2017-04-22T13:14:18.135Z,13.80